sensor_id;sensor_type;location;lat;lon;timestamp;temperature;humidity
24645;DHT22;12780;45.502;9.146;2023-04-24T00:00:56;16.20;99.90
24645;DHT22;12780;45.502;9.146;2023-04-24T00:03:25;16.10;99.90
24645;DHT22;12780;45.502;9.146;2023-04-24T00:05:51;16.00;99.90
24645;DHT22;12780;45.502;9.146;2023-04-24T00:08:17;15.90;99.90
24645;DHT22;12780;45.502;9.146;2023-04-24T00:10:43;15.80;99.90
24645;DHT22;12780;45.502;9.146;2023-04-24T00:13:09;15.90;99.90
24645;DHT22;12780;45.502;9.146;2023-04-24T00:15:34;15.80;99.90
24645;DHT22;12780;45.502;9.146;2023-04-24T00:18:00;15.70;99.90
24645;DHT22;12780;45.502;9.146;2023-04-24T00:20:27;15.60;99.90
24645;DHT22;12780;45.502;9.146;2023-04-24T00:22:54;15.60;99.90
24645;DHT22;12780;45.502;9.146;2023-04-24T00:25:20;15.40;99.90
24645;DHT22;12780;45.502;9.146;2023-04-24T00:27:45;15.60;99.90
24645;DHT22;12780;45.502;9.146;2023-04-24T00:30:11;15.60;99.90
24645;DHT22;12780;45.502;9.146;2023-04-24T00:32:37;15.50;99.90
24645;DHT22;12780;45.502;9.146;2023-04-24T00:35:02;15.30;99.90
24645;DHT22;12780;45.502;9.146;2023-04-24T00:37:28;15.30;99.90
24645;DHT22;12780;45.502;9.146;2023-04-24T00:39:54;15.30;99.90
24645;DHT22;12780;45.502;9.146;2023-04-24T00:42:20;15.20;99.90
24645;DHT22;12780;45.502;9.146;2023-04-24T00:44:46;15.30;99.90
24645;DHT22;12780;45.502;9.146;2023-04-24T00:47:12;15.20;99.90
24645;DHT22;12780;45.502;9.146;2023-04-24T00:49:38;15.20;99.90
24645;DHT22;12780;45.502;9.146;2023-04-24T00:52:03;15.10;99.90
24645;DHT22;12780;45.502;9.146;2023-04-24T00:54:33;15.10;99.90
24645;DHT22;12780;45.502;9.146;2023-04-24T00:56:58;15.20;99.90
24645;DHT22;12780;45.502;9.146;2023-04-24T00:59:24;15.10;99.90
24645;DHT22;12780;45.502;9.146;2023-04-24T01:01:50;15.20;99.90
24645;DHT22;12780;45.502;9.146;2023-04-24T01:04:17;15.10;99.90
24645;DHT22;12780;45.502;9.146;2023-04-24T01:06:43;15.20;99.90
24645;DHT22;12780;45.502;9.146;2023-04-24T01:09:10;15.10;99.90
24645;DHT22;12780;45.502;9.146;2023-04-24T01:11:37;15.20;99.90
24645;DHT22;12780;45.502;9.146;2023-04-24T01:14:02;15.20;99.90
24645;DHT22;12780;45.502;9.146;2023-04-24T01:16:29;15.30;99.90
24645;DHT22;12780;45.502;9.146;2023-04-24T01:18:54;15.30;99.90
24645;DHT22;12780;45.502;9.146;2023-04-24T01:21:20;15.40;99.90
24645;DHT22;12780;45.502;9.146;2023-04-24T01:23:46;15.40;99.90
24645;DHT22;12780;45.502;9.146;2023-04-24T01:26:15;15.40;99.90
24645;DHT22;12780;45.502;9.146;2023-04-24T01:28:40;15.40;99.90
24645;DHT22;12780;45.502;9.146;2023-04-24T01:31:06;15.30;99.90
24645;DHT22;12780;45.502;9.146;2023-04-24T01:33:33;15.30;99.90
24645;DHT22;12780;45.502;9.146;2023-04-24T01:35:59;15.40;99.90
24645;DHT22;12780;45.502;9.146;2023-04-24T01:38:25;15.40;99.90
24645;DHT22;12780;45.502;9.146;2023-04-24T01:40:51;15.50;99.90
24645;DHT22;12780;45.502;9.146;2023-04-24T01:43:17;15.60;99.90
24645;DHT22;12780;45.502;9.146;2023-04-24T01:45:43;15.70;99.90
24645;DHT22;12780;45.502;9.146;2023-04-24T01:48:08;15.60;99.90
24645;DHT22;12780;45.502;9.146;2023-04-24T01:50:34;15.70;99.90
24645;DHT22;12780;45.502;9.146;2023-04-24T01:53:00;15.60;99.90
24645;DHT22;12780;45.502;9.146;2023-04-24T01:55:25;15.50;99.90
24645;DHT22;12780;45.502;9.146;2023-04-24T01:57:52;15.50;99.90
24645;DHT22;12780;45.502;9.146;2023-04-24T02:00:19;15.60;99.90
24645;DHT22;12780;45.502;9.146;2023-04-24T02:02:45;15.60;99.90
24645;DHT22;12780;45.502;9.146;2023-04-24T02:05:11;15.60;99.90
24645;DHT22;12780;45.502;9.146;2023-04-24T02:07:36;15.70;99.90
24645;DHT22;12780;45.502;9.146;2023-04-24T02:10:02;15.70;99.90
24645;DHT22;12780;45.502;9.146;2023-04-24T02:12:29;15.70;99.90
24645;DHT22;12780;45.502;9.146;2023-04-24T02:14:55;15.70;99.90
24645;DHT22;12780;45.502;9.146;2023-04-24T02:17:20;15.60;99.90
24645;DHT22;12780;45.502;9.146;2023-04-24T02:19:46;15.50;99.90
24645;DHT22;12780;45.502;9.146;2023-04-24T02:22:12;15.40;99.90
24645;DHT22;12780;45.502;9.146;2023-04-24T02:24:38;15.40;99.90
24645;DHT22;12780;45.502;9.146;2023-04-24T02:27:04;15.40;99.90
24645;DHT22;12780;45.502;9.146;2023-04-24T02:29:29;15.50;99.90
24645;DHT22;12780;45.502;9.146;2023-04-24T02:31:55;15.20;99.90
24645;DHT22;12780;45.502;9.146;2023-04-24T02:34:21;15.20;99.90
24645;DHT22;12780;45.502;9.146;2023-04-24T02:36:46;15.10;99.90
24645;DHT22;12780;45.502;9.146;2023-04-24T02:39:12;15.10;99.90
24645;DHT22;12780;45.502;9.146;2023-04-24T02:41:38;15.20;99.90
24645;DHT22;12780;45.502;9.146;2023-04-24T02:44:04;15.30;99.90
24645;DHT22;12780;45.502;9.146;2023-04-24T02:46:29;15.30;99.90
24645;DHT22;12780;45.502;9.146;2023-04-24T02:48:55;15.30;99.90
24645;DHT22;12780;45.502;9.146;2023-04-24T02:51:21;15.30;99.90
24645;DHT22;12780;45.502;9.146;2023-04-24T02:53:46;15.20;99.90
24645;DHT22;12780;45.502;9.146;2023-04-24T02:56:12;15.20;99.90
24645;DHT22;12780;45.502;9.146;2023-04-24T02:58:38;15.20;99.90
24645;DHT22;12780;45.502;9.146;2023-04-24T03:01:03;15.10;99.90
24645;DHT22;12780;45.502;9.146;2023-04-24T03:03:30;15.20;99.90
24645;DHT22;12780;45.502;9.146;2023-04-24T03:05:55;15.40;99.90
24645;DHT22;12780;45.502;9.146;2023-04-24T03:08:21;15.30;99.90
24645;DHT22;12780;45.502;9.146;2023-04-24T03:10:46;15.30;99.90
24645;DHT22;12780;45.502;9.146;2023-04-24T03:13:12;15.30;99.90
24645;DHT22;12780;45.502;9.146;2023-04-24T03:15:37;15.20;99.90
24645;DHT22;12780;45.502;9.146;2023-04-24T03:18:03;15.30;99.90
24645;DHT22;12780;45.502;9.146;2023-04-24T03:20:29;15.30;99.90
24645;DHT22;12780;45.502;9.146;2023-04-24T03:22:54;15.30;99.90
24645;DHT22;12780;45.502;9.146;2023-04-24T03:25:21;15.30;99.90
24645;DHT22;12780;45.502;9.146;2023-04-24T03:27:47;15.30;99.90
24645;DHT22;12780;45.502;9.146;2023-04-24T03:30:13;15.30;99.90
24645;DHT22;12780;45.502;9.146;2023-04-24T03:32:38;15.30;99.90
24645;DHT22;12780;45.502;9.146;2023-04-24T03:35:07;15.30;99.90
24645;DHT22;12780;45.502;9.146;2023-04-24T03:37:33;15.20;99.90
24645;DHT22;12780;45.502;9.146;2023-04-24T03:40:00;15.20;99.90
24645;DHT22;12780;45.502;9.146;2023-04-24T03:42:25;15.20;99.90
24645;DHT22;12780;45.502;9.146;2023-04-24T03:44:51;15.30;99.90
24645;DHT22;12780;45.502;9.146;2023-04-24T03:47:16;15.20;99.90
24645;DHT22;12780;45.502;9.146;2023-04-24T03:49:42;15.20;99.90
24645;DHT22;12780;45.502;9.146;2023-04-24T03:52:07;15.20;99.90
24645;DHT22;12780;45.502;9.146;2023-04-24T03:54:33;15.10;99.90
24645;DHT22;12780;45.502;9.146;2023-04-24T03:56:58;15.10;99.90
24645;DHT22;12780;45.502;9.146;2023-04-24T03:59:24;15.00;99.90
24645;DHT22;12780;45.502;9.146;2023-04-24T04:01:49;15.10;99.90
24645;DHT22;12780;45.502;9.146;2023-04-24T04:04:15;14.90;99.90
24645;DHT22;12780;45.502;9.146;2023-04-24T04:06:41;15.00;99.90
24645;DHT22;12780;45.502;9.146;2023-04-24T04:09:07;15.10;99.90
24645;DHT22;12780;45.502;9.146;2023-04-24T04:11:33;15.00;99.90
24645;DHT22;12780;45.502;9.146;2023-04-24T04:14:00;15.10;99.90
24645;DHT22;12780;45.502;9.146;2023-04-24T04:16:26;15.00;99.90
24645;DHT22;12780;45.502;9.146;2023-04-24T04:18:51;15.00;99.90
24645;DHT22;12780;45.502;9.146;2023-04-24T04:21:17;15.00;99.90
24645;DHT22;12780;45.502;9.146;2023-04-24T04:23:43;15.00;99.90
24645;DHT22;12780;45.502;9.146;2023-04-24T04:26:09;15.00;99.90
24645;DHT22;12780;45.502;9.146;2023-04-24T04:28:34;15.00;99.90
24645;DHT22;12780;45.502;9.146;2023-04-24T04:31:00;15.00;99.90
24645;DHT22;12780;45.502;9.146;2023-04-24T04:33:26;14.90;99.90
24645;DHT22;12780;45.502;9.146;2023-04-24T04:35:52;15.00;99.90
24645;DHT22;12780;45.502;9.146;2023-04-24T04:38:18;14.90;99.90
24645;DHT22;12780;45.502;9.146;2023-04-24T04:40:45;15.00;99.90
24645;DHT22;12780;45.502;9.146;2023-04-24T04:43:11;14.90;99.90
24645;DHT22;12780;45.502;9.146;2023-04-24T04:45:37;15.00;99.90
24645;DHT22;12780;45.502;9.146;2023-04-24T04:48:04;14.90;99.90
24645;DHT22;12780;45.502;9.146;2023-04-24T04:50:32;15.00;99.90
24645;DHT22;12780;45.502;9.146;2023-04-24T04:52:58;14.90;99.90
24645;DHT22;12780;45.502;9.146;2023-04-24T04:55:23;15.00;99.90
24645;DHT22;12780;45.502;9.146;2023-04-24T04:57:49;14.90;99.90
24645;DHT22;12780;45.502;9.146;2023-04-24T05:00:15;14.90;99.90
24645;DHT22;12780;45.502;9.146;2023-04-24T05:02:41;14.90;99.90
24645;DHT22;12780;45.502;9.146;2023-04-24T05:05:07;14.90;99.90
24645;DHT22;12780;45.502;9.146;2023-04-24T05:07:33;14.90;99.90
24645;DHT22;12780;45.502;9.146;2023-04-24T05:09:58;14.90;99.90
24645;DHT22;12780;45.502;9.146;2023-04-24T05:12:24;15.00;99.90
24645;DHT22;12780;45.502;9.146;2023-04-24T05:14:49;14.90;99.90
24645;DHT22;12780;45.502;9.146;2023-04-24T05:17:15;14.80;99.90
24645;DHT22;12780;45.502;9.146;2023-04-24T05:19:41;14.70;99.90
24645;DHT22;12780;45.502;9.146;2023-04-24T05:22:08;14.80;99.90
24645;DHT22;12780;45.502;9.146;2023-04-24T05:24:35;14.60;99.90
24645;DHT22;12780;45.502;9.146;2023-04-24T05:27:01;14.60;99.90
24645;DHT22;12780;45.502;9.146;2023-04-24T05:29:28;14.70;99.90
24645;DHT22;12780;45.502;9.146;2023-04-24T05:31:56;14.60;99.90
24645;DHT22;12780;45.502;9.146;2023-04-24T05:34:21;14.40;99.90
24645;DHT22;12780;45.502;9.146;2023-04-24T05:36:47;14.40;99.90
24645;DHT22;12780;45.502;9.146;2023-04-24T05:39:13;14.40;99.90
24645;DHT22;12780;45.502;9.146;2023-04-24T05:41:39;14.30;99.90
24645;DHT22;12780;45.502;9.146;2023-04-24T05:44:05;14.50;99.90
24645;DHT22;12780;45.502;9.146;2023-04-24T05:46:30;14.50;99.90
24645;DHT22;12780;45.502;9.146;2023-04-24T05:48:56;14.60;99.90
24645;DHT22;12780;45.502;9.146;2023-04-24T05:51:21;14.60;99.90
24645;DHT22;12780;45.502;9.146;2023-04-24T05:53:47;14.70;99.90
24645;DHT22;12780;45.502;9.146;2023-04-24T05:56:12;14.50;99.90
24645;DHT22;12780;45.502;9.146;2023-04-24T05:58:38;14.50;99.90
24645;DHT22;12780;45.502;9.146;2023-04-24T06:01:04;14.60;99.90
24645;DHT22;12780;45.502;9.146;2023-04-24T06:03:30;14.70;99.90
24645;DHT22;12780;45.502;9.146;2023-04-24T06:05:56;14.70;99.90
24645;DHT22;12780;45.502;9.146;2023-04-24T06:08:21;14.70;99.90
24645;DHT22;12780;45.502;9.146;2023-04-24T06:10:47;14.70;99.90
24645;DHT22;12780;45.502;9.146;2023-04-24T06:13:12;14.70;99.90
24645;DHT22;12780;45.502;9.146;2023-04-24T06:15:38;14.70;99.90
24645;DHT22;12780;45.502;9.146;2023-04-24T06:18:03;14.70;99.90
24645;DHT22;12780;45.502;9.146;2023-04-24T06:20:29;14.80;99.90
24645;DHT22;12780;45.502;9.146;2023-04-24T06:22:55;14.80;99.90
24645;DHT22;12780;45.502;9.146;2023-04-24T06:25:20;14.90;99.90
24645;DHT22;12780;45.502;9.146;2023-04-24T06:27:46;14.90;99.90
24645;DHT22;12780;45.502;9.146;2023-04-24T06:30:12;14.90;99.90
24645;DHT22;12780;45.502;9.146;2023-04-24T06:32:37;14.90;99.90
24645;DHT22;12780;45.502;9.146;2023-04-24T06:35:03;15.00;99.90
24645;DHT22;12780;45.502;9.146;2023-04-24T06:37:29;15.00;99.90
24645;DHT22;12780;45.502;9.146;2023-04-24T06:39:55;14.90;99.90
24645;DHT22;12780;45.502;9.146;2023-04-24T06:42:21;15.00;99.90
24645;DHT22;12780;45.502;9.146;2023-04-24T06:44:47;15.20;99.90
24645;DHT22;12780;45.502;9.146;2023-04-24T06:47:13;15.20;99.90
24645;DHT22;12780;45.502;9.146;2023-04-24T06:49:39;15.20;99.90
24645;DHT22;12780;45.502;9.146;2023-04-24T06:52:05;15.30;99.90
24645;DHT22;12780;45.502;9.146;2023-04-24T06:54:31;15.40;99.90
24645;DHT22;12780;45.502;9.146;2023-04-24T06:56:57;15.50;99.90
24645;DHT22;12780;45.502;9.146;2023-04-24T06:59:24;15.50;99.90
24645;DHT22;12780;45.502;9.146;2023-04-24T07:01:50;15.70;99.90
24645;DHT22;12780;45.502;9.146;2023-04-24T07:04:16;15.70;99.90
24645;DHT22;12780;45.502;9.146;2023-04-24T07:06:43;15.80;99.90
24645;DHT22;12780;45.502;9.146;2023-04-24T07:09:08;15.80;99.90
24645;DHT22;12780;45.502;9.146;2023-04-24T07:11:35;15.90;99.90
24645;DHT22;12780;45.502;9.146;2023-04-24T07:14:00;15.90;99.90
24645;DHT22;12780;45.502;9.146;2023-04-24T07:16:26;15.90;99.90
24645;DHT22;12780;45.502;9.146;2023-04-24T07:18:52;15.90;99.90
24645;DHT22;12780;45.502;9.146;2023-04-24T07:21:18;16.00;99.90
24645;DHT22;12780;45.502;9.146;2023-04-24T07:23:43;16.10;99.90
24645;DHT22;12780;45.502;9.146;2023-04-24T07:26:09;16.10;99.90
24645;DHT22;12780;45.502;9.146;2023-04-24T07:28:34;16.20;99.90
24645;DHT22;12780;45.502;9.146;2023-04-24T07:31:00;16.50;99.90
24645;DHT22;12780;45.502;9.146;2023-04-24T07:33:26;16.50;99.90
24645;DHT22;12780;45.502;9.146;2023-04-24T07:35:52;16.70;99.90
24645;DHT22;12780;45.502;9.146;2023-04-24T07:38:18;16.70;99.90
24645;DHT22;12780;45.502;9.146;2023-04-24T07:40:47;16.90;99.90
24645;DHT22;12780;45.502;9.146;2023-04-24T07:43:12;16.90;99.90
24645;DHT22;12780;45.502;9.146;2023-04-24T07:45:38;17.00;99.90
24645;DHT22;12780;45.502;9.146;2023-04-24T07:48:04;17.00;99.90
24645;DHT22;12780;45.502;9.146;2023-04-24T07:50:30;17.10;99.90
24645;DHT22;12780;45.502;9.146;2023-04-24T07:52:56;17.10;99.90
24645;DHT22;12780;45.502;9.146;2023-04-24T07:55:21;17.10;99.90
24645;DHT22;12780;45.502;9.146;2023-04-24T07:57:47;17.30;99.90
24645;DHT22;12780;45.502;9.146;2023-04-24T08:00:13;17.30;99.90
24645;DHT22;12780;45.502;9.146;2023-04-24T08:02:38;17.30;99.90
24645;DHT22;12780;45.502;9.146;2023-04-24T08:05:04;17.50;99.90
24645;DHT22;12780;45.502;9.146;2023-04-24T08:07:31;17.50;99.90
24645;DHT22;12780;45.502;9.146;2023-04-24T08:09:56;17.60;99.90
24645;DHT22;12780;45.502;9.146;2023-04-24T08:12:22;17.50;99.90
24645;DHT22;12780;45.502;9.146;2023-04-24T08:14:47;17.50;99.90
24645;DHT22;12780;45.502;9.146;2023-04-24T08:17:13;17.50;99.90
24645;DHT22;12780;45.502;9.146;2023-04-24T08:19:40;17.50;99.90
24645;DHT22;12780;45.502;9.146;2023-04-24T08:22:12;17.50;99.90
24645;DHT22;12780;45.502;9.146;2023-04-24T08:24:38;17.60;99.90
24645;DHT22;12780;45.502;9.146;2023-04-24T08:27:04;17.60;99.90
24645;DHT22;12780;45.502;9.146;2023-04-24T08:29:29;17.50;99.90
24645;DHT22;12780;45.502;9.146;2023-04-24T08:31:55;17.50;99.90
24645;DHT22;12780;45.502;9.146;2023-04-24T08:34:21;17.40;99.90
24645;DHT22;12780;45.502;9.146;2023-04-24T08:36:47;17.30;99.90
24645;DHT22;12780;45.502;9.146;2023-04-24T08:39:13;17.50;99.90
24645;DHT22;12780;45.502;9.146;2023-04-24T08:41:41;17.60;99.90
24645;DHT22;12780;45.502;9.146;2023-04-24T08:44:09;17.80;99.90
24645;DHT22;12780;45.502;9.146;2023-04-24T08:46:35;17.70;99.90
24645;DHT22;12780;45.502;9.146;2023-04-24T08:49:02;17.70;99.90
24645;DHT22;12780;45.502;9.146;2023-04-24T08:51:29;17.60;99.90
24645;DHT22;12780;45.502;9.146;2023-04-24T08:53:57;17.70;99.90
24645;DHT22;12780;45.502;9.146;2023-04-24T08:56:23;17.80;99.90
24645;DHT22;12780;45.502;9.146;2023-04-24T08:58:51;17.90;99.90
24645;DHT22;12780;45.502;9.146;2023-04-24T09:01:21;17.90;99.90
24645;DHT22;12780;45.502;9.146;2023-04-24T09:03:48;18.00;99.90
24645;DHT22;12780;45.502;9.146;2023-04-24T09:06:15;18.00;99.90
24645;DHT22;12780;45.502;9.146;2023-04-24T09:08:43;18.10;99.90
24645;DHT22;12780;45.502;9.146;2023-04-24T09:11:11;18.10;99.90
24645;DHT22;12780;45.502;9.146;2023-04-24T09:13:37;18.10;99.90
24645;DHT22;12780;45.502;9.146;2023-04-24T09:16:03;18.00;99.90
24645;DHT22;12780;45.502;9.146;2023-04-24T09:18:28;18.10;99.90
24645;DHT22;12780;45.502;9.146;2023-04-24T09:21:05;18.10;99.90
24645;DHT22;12780;45.502;9.146;2023-04-24T09:23:32;18.20;99.90
24645;DHT22;12780;45.502;9.146;2023-04-24T09:25:59;18.20;99.90
24645;DHT22;12780;45.502;9.146;2023-04-24T09:28:30;18.40;99.90
24645;DHT22;12780;45.502;9.146;2023-04-24T09:33:35;18.20;99.90
24645;DHT22;12780;45.502;9.146;2023-04-24T09:36:01;18.20;99.90
24645;DHT22;12780;45.502;9.146;2023-04-24T09:38:37;18.20;99.90
24645;DHT22;12780;45.502;9.146;2023-04-24T09:41:06;18.30;99.90
24645;DHT22;12780;45.502;9.146;2023-04-24T09:43:33;18.20;99.90
24645;DHT22;12780;45.502;9.146;2023-04-24T09:46:07;18.10;99.90
24645;DHT22;12780;45.502;9.146;2023-04-24T09:48:38;18.40;99.90
24645;DHT22;12780;45.502;9.146;2023-04-24T09:51:06;18.30;99.90
24645;DHT22;12780;45.502;9.146;2023-04-24T09:53:32;18.40;99.90
24645;DHT22;12780;45.502;9.146;2023-04-24T09:56:09;18.40;99.90
24645;DHT22;12780;45.502;9.146;2023-04-24T09:58:36;18.60;99.90
24645;DHT22;12780;45.502;9.146;2023-04-24T10:01:01;18.60;99.90
24645;DHT22;12780;45.502;9.146;2023-04-24T10:03:30;18.60;99.90
24645;DHT22;12780;45.502;9.146;2023-04-24T10:06:00;18.70;99.90
24645;DHT22;12780;45.502;9.146;2023-04-24T10:08:25;18.60;99.90
24645;DHT22;12780;45.502;9.146;2023-04-24T10:10:52;18.60;99.90
24645;DHT22;12780;45.502;9.146;2023-04-24T10:13:18;18.60;99.90
24645;DHT22;12780;45.502;9.146;2023-04-24T10:15:44;18.50;99.90
24645;DHT22;12780;45.502;9.146;2023-04-24T10:18:11;18.70;99.90
24645;DHT22;12780;45.502;9.146;2023-04-24T10:20:39;18.70;99.90
24645;DHT22;12780;45.502;9.146;2023-04-24T10:23:06;18.80;99.90
24645;DHT22;12780;45.502;9.146;2023-04-24T10:25:33;18.70;99.90
24645;DHT22;12780;45.502;9.146;2023-04-24T10:28:00;18.80;99.90
24645;DHT22;12780;45.502;9.146;2023-04-24T10:30:28;18.80;99.90
24645;DHT22;12780;45.502;9.146;2023-04-24T10:32:54;18.90;99.90
24645;DHT22;12780;45.502;9.146;2023-04-24T10:35:20;18.80;99.90
24645;DHT22;12780;45.502;9.146;2023-04-24T10:38:01;19.00;99.90
24645;DHT22;12780;45.502;9.146;2023-04-24T10:40:35;19.10;99.90
24645;DHT22;12780;45.502;9.146;2023-04-24T10:43:08;19.20;99.90
24645;DHT22;12780;45.502;9.146;2023-04-24T10:45:37;19.30;99.90
24645;DHT22;12780;45.502;9.146;2023-04-24T10:48:04;19.20;99.90
24645;DHT22;12780;45.502;9.146;2023-04-24T10:50:46;19.30;99.90
24645;DHT22;12780;45.502;9.146;2023-04-24T10:53:17;19.40;99.90
24645;DHT22;12780;45.502;9.146;2023-04-24T10:55:47;19.40;99.90
24645;DHT22;12780;45.502;9.146;2023-04-24T10:58:13;19.50;99.90
24645;DHT22;12780;45.502;9.146;2023-04-24T11:00:41;19.40;99.90
24645;DHT22;12780;45.502;9.146;2023-04-24T11:03:31;19.50;99.90
24645;DHT22;12780;45.502;9.146;2023-04-24T11:06:07;19.70;99.90
24645;DHT22;12780;45.502;9.146;2023-04-24T11:08:43;19.80;99.90
24645;DHT22;12780;45.502;9.146;2023-04-24T11:11:12;19.90;99.90
24645;DHT22;12780;45.502;9.146;2023-04-24T11:16:33;20.00;99.90
24645;DHT22;12780;45.502;9.146;2023-04-24T11:21:42;20.30;99.90
24645;DHT22;12780;45.502;9.146;2023-04-24T11:26:52;20.60;99.90
24645;DHT22;12780;45.502;9.146;2023-04-24T11:29:20;20.60;99.90
24645;DHT22;12780;45.502;9.146;2023-04-24T11:31:46;20.70;99.90
24645;DHT22;12780;45.502;9.146;2023-04-24T11:34:17;20.80;99.90
24645;DHT22;12780;45.502;9.146;2023-04-24T11:36:44;20.90;99.90
24645;DHT22;12780;45.502;9.146;2023-04-24T11:39:11;21.10;99.90
24645;DHT22;12780;45.502;9.146;2023-04-24T11:41:37;21.00;99.90
24645;DHT22;12780;45.502;9.146;2023-04-24T11:44:05;21.10;99.90
24645;DHT22;12780;45.502;9.146;2023-04-24T11:46:31;21.20;99.90
24645;DHT22;12780;45.502;9.146;2023-04-24T11:48:58;21.30;99.90
24645;DHT22;12780;45.502;9.146;2023-04-24T11:51:25;21.40;99.90
24645;DHT22;12780;45.502;9.146;2023-04-24T11:53:52;21.50;99.90
24645;DHT22;12780;45.502;9.146;2023-04-24T11:56:18;21.60;99.90
24645;DHT22;12780;45.502;9.146;2023-04-24T11:58:45;21.70;99.90
24645;DHT22;12780;45.502;9.146;2023-04-24T12:01:12;21.70;99.90
24645;DHT22;12780;45.502;9.146;2023-04-24T12:03:37;22.00;99.90
24645;DHT22;12780;45.502;9.146;2023-04-24T12:06:10;22.00;99.90
24645;DHT22;12780;45.502;9.146;2023-04-24T12:08:37;22.10;99.90
24645;DHT22;12780;45.502;9.146;2023-04-24T12:11:05;22.20;99.90
24645;DHT22;12780;45.502;9.146;2023-04-24T12:13:33;22.20;99.90
24645;DHT22;12780;45.502;9.146;2023-04-24T12:15:59;22.30;99.90
24645;DHT22;12780;45.502;9.146;2023-04-24T12:18:25;22.40;99.90
24645;DHT22;12780;45.502;9.146;2023-04-24T12:20:51;22.50;99.90
24645;DHT22;12780;45.502;9.146;2023-04-24T12:23:36;22.50;99.90
24645;DHT22;12780;45.502;9.146;2023-04-24T12:26:04;22.60;99.90
24645;DHT22;12780;45.502;9.146;2023-04-24T12:28:38;22.60;99.90
24645;DHT22;12780;45.502;9.146;2023-04-24T12:31:04;22.60;99.90
24645;DHT22;12780;45.502;9.146;2023-04-24T12:33:35;22.60;99.90
24645;DHT22;12780;45.502;9.146;2023-04-24T12:36:01;22.50;99.90
24645;DHT22;12780;45.502;9.146;2023-04-24T12:38:28;22.30;99.90
24645;DHT22;12780;45.502;9.146;2023-04-24T12:41:09;22.40;99.90
24645;DHT22;12780;45.502;9.146;2023-04-24T12:43:35;22.40;99.90
24645;DHT22;12780;45.502;9.146;2023-04-24T12:46:01;22.40;99.90
24645;DHT22;12780;45.502;9.146;2023-04-24T12:48:27;22.30;99.90
24645;DHT22;12780;45.502;9.146;2023-04-24T12:50:53;22.50;99.90
24645;DHT22;12780;45.502;9.146;2023-04-24T12:53:19;22.30;99.90
24645;DHT22;12780;45.502;9.146;2023-04-24T12:55:44;22.40;99.90
24645;DHT22;12780;45.502;9.146;2023-04-24T12:58:10;22.30;99.90
24645;DHT22;12780;45.502;9.146;2023-04-24T13:00:36;22.30;99.90
24645;DHT22;12780;45.502;9.146;2023-04-24T13:03:02;22.30;99.90
24645;DHT22;12780;45.502;9.146;2023-04-24T13:05:28;22.30;99.90
24645;DHT22;12780;45.502;9.146;2023-04-24T13:07:54;22.20;99.90
24645;DHT22;12780;45.502;9.146;2023-04-24T13:10:19;22.30;99.90
24645;DHT22;12780;45.502;9.146;2023-04-24T13:12:45;22.30;99.90
24645;DHT22;12780;45.502;9.146;2023-04-24T13:15:11;22.40;99.90
24645;DHT22;12780;45.502;9.146;2023-04-24T13:17:37;22.50;99.90
24645;DHT22;12780;45.502;9.146;2023-04-24T13:20:04;22.40;99.90
24645;DHT22;12780;45.502;9.146;2023-04-24T13:22:30;22.30;99.90
24645;DHT22;12780;45.502;9.146;2023-04-24T13:24:56;22.40;99.90
24645;DHT22;12780;45.502;9.146;2023-04-24T13:27:22;22.40;99.90
24645;DHT22;12780;45.502;9.146;2023-04-24T13:29:48;22.40;99.90
24645;DHT22;12780;45.502;9.146;2023-04-24T13:32:13;22.40;99.90
24645;DHT22;12780;45.502;9.146;2023-04-24T13:34:39;22.30;99.90
24645;DHT22;12780;45.502;9.146;2023-04-24T13:37:05;22.40;99.90
24645;DHT22;12780;45.502;9.146;2023-04-24T13:39:31;22.40;99.90
24645;DHT22;12780;45.502;9.146;2023-04-24T13:41:57;22.50;99.90
24645;DHT22;12780;45.502;9.146;2023-04-24T13:44:23;22.30;99.90
24645;DHT22;12780;45.502;9.146;2023-04-24T13:46:51;22.50;99.90
24645;DHT22;12780;45.502;9.146;2023-04-24T13:49:19;22.50;99.90
24645;DHT22;12780;45.502;9.146;2023-04-24T13:51:45;22.50;99.90
24645;DHT22;12780;45.502;9.146;2023-04-24T13:54:11;22.60;99.90
24645;DHT22;12780;45.502;9.146;2023-04-24T13:56:37;22.60;99.90
24645;DHT22;12780;45.502;9.146;2023-04-24T13:59:02;22.60;99.90
24645;DHT22;12780;45.502;9.146;2023-04-24T14:01:28;22.50;99.90
24645;DHT22;12780;45.502;9.146;2023-04-24T14:03:55;22.50;99.90
24645;DHT22;12780;45.502;9.146;2023-04-24T14:06:21;22.60;99.90
24645;DHT22;12780;45.502;9.146;2023-04-24T14:08:47;22.60;99.90
24645;DHT22;12780;45.502;9.146;2023-04-24T14:11:13;22.70;99.90
24645;DHT22;12780;45.502;9.146;2023-04-24T14:13:41;22.70;99.90
24645;DHT22;12780;45.502;9.146;2023-04-24T14:16:06;22.70;99.00
24645;DHT22;12780;45.502;9.146;2023-04-24T14:18:32;22.70;98.50
24645;DHT22;12780;45.502;9.146;2023-04-24T14:20:58;22.70;98.50
24645;DHT22;12780;45.502;9.146;2023-04-24T14:23:23;22.70;98.40
24645;DHT22;12780;45.502;9.146;2023-04-24T14:25:49;22.80;99.00
24645;DHT22;12780;45.502;9.146;2023-04-24T14:28:18;22.70;97.90
24645;DHT22;12780;45.502;9.146;2023-04-24T14:30:44;22.80;98.50
24645;DHT22;12780;45.502;9.146;2023-04-24T14:33:09;22.80;97.70
24645;DHT22;12780;45.502;9.146;2023-04-24T14:35:35;22.80;98.10
24645;DHT22;12780;45.502;9.146;2023-04-24T14:38:01;22.80;98.30
24645;DHT22;12780;45.502;9.146;2023-04-24T14:40:27;22.80;97.50
24645;DHT22;12780;45.502;9.146;2023-04-24T14:42:53;22.80;96.50
24645;DHT22;12780;45.502;9.146;2023-04-24T14:45:19;22.80;96.30
24645;DHT22;12780;45.502;9.146;2023-04-24T14:47:45;22.80;96.40
24645;DHT22;12780;45.502;9.146;2023-04-24T14:50:10;22.80;96.00
24645;DHT22;12780;45.502;9.146;2023-04-24T14:52:37;22.90;95.30
24645;DHT22;12780;45.502;9.146;2023-04-24T14:55:03;22.80;95.40
24645;DHT22;12780;45.502;9.146;2023-04-24T14:57:29;22.80;95.40
24645;DHT22;12780;45.502;9.146;2023-04-24T14:59:55;22.80;95.70
24645;DHT22;12780;45.502;9.146;2023-04-24T15:02:21;22.80;96.90
24645;DHT22;12780;45.502;9.146;2023-04-24T15:04:46;22.80;97.20
24645;DHT22;12780;45.502;9.146;2023-04-24T15:07:12;22.90;95.90
24645;DHT22;12780;45.502;9.146;2023-04-24T15:09:37;23.00;95.40
24645;DHT22;12780;45.502;9.146;2023-04-24T15:12:03;22.80;95.10
24645;DHT22;12780;45.502;9.146;2023-04-24T15:14:29;22.80;94.40
24645;DHT22;12780;45.502;9.146;2023-04-24T15:16:54;22.60;94.40
24645;DHT22;12780;45.502;9.146;2023-04-24T15:19:20;22.80;95.80
24645;DHT22;12780;45.502;9.146;2023-04-24T15:21:46;22.70;95.90
24645;DHT22;12780;45.502;9.146;2023-04-24T15:24:11;22.80;95.40
24645;DHT22;12780;45.502;9.146;2023-04-24T15:26:37;22.80;96.40
24645;DHT22;12780;45.502;9.146;2023-04-24T15:29:02;22.80;95.20
24645;DHT22;12780;45.502;9.146;2023-04-24T15:31:28;22.70;95.50
24645;DHT22;12780;45.502;9.146;2023-04-24T15:33:53;22.80;96.10
24645;DHT22;12780;45.502;9.146;2023-04-24T15:36:19;22.80;95.90